Vingaren — OZ2131 — position and weather

sailwx.info

Track history (hours):
 
Tides and Currents Weather Stations Pressure Air Temp Water Temp Dewpoint Dewpoint Depression Visibility Wind Speed Wind Dir Waves Ship Positions

Vingaren

Last reported at 2015-Feb-24 21:08 UTC. Time now 2015-Mar-03 04:43 UTC.
Position N 58°38' E 017°09'.

Length 89 m; draft 3.9 m.

Type: Cargo ship. MMSI: 231844000.

Date/timePositionNaut miles runAvg speedWind from/ knotsBaromVisibWave heightAir tempDewpointWater temp
2015-Feb-24 21:08N 58°38' E 017°09'611.0
2015-Feb-24 20:33N 58°36' E 016°57'1010.5
2015-Feb-24 19:33N 58°38' E 016°37'10 9.8
2015-Feb-24 18:34N 58°38' E 016°18'4 3.5
2015-Feb-24 17:33N 58°36' E 016°13'0 0.0
2015-Feb-24 16:33N 58°36' E 016°13'0 0.0
2015-Feb-24 15:33N 58°36' E 016°13'0 0.0
2015-Feb-24 14:33N 58°36' E 016°13'0 0.0
2015-Feb-24 13:33N 58°36' E 016°13'0 0.0
2015-Feb-24 12:33N 58°36' E 016°13'0 0.0
2015-Feb-24 11:33N 58°36' E 016°13'0 0.0
2015-Feb-24 10:33N 58°36' E 016°13'0 0.0
2015-Feb-24 09:33N 58°36' E 016°13'0 0.0
2015-Feb-24 08:33N 58°36' E 016°13'0 0.0
2015-Feb-24 07:33N 58°36' E 016°13'0 0.0
2015-Feb-24 06:33N 58°36' E 016°13'0 0.0
2015-Feb-24 05:33N 58°36' E 016°13'0 0.0
2015-Feb-24 04:33N 58°36' E 016°13'0 0.0
2015-Feb-24 03:27N 58°36' E 016°13'0 0.0
2015-Feb-24 02:33N 58°36' E 016°13'0 0.0
2015-Feb-24 01:33N 58°36' E 016°13'0 0.0
2015-Feb-24 00:33N 58°36' E 016°13'0 0.0
2015-Feb-23 23:33N 58°36' E 016°13'0 0.0
2015-Feb-23 22:33N 58°36' E 016°13'0 0.0
2015-Feb-23 21:33N 58°36' E 016°13'0 0.0
2015-Feb-23 09:32N 58°36' E 016°13'0 0.0
2015-Feb-23 08:32N 58°36' E 016°13'0 0.0
2015-Feb-23 07:32N 58°36' E 016°13'0 0.0
2015-Feb-23 06:32N 58°36' E 016°13'0 0.0
2015-Feb-23 05:32N 58°36' E 016°13'0 0.0
2015-Feb-23 04:32N 58°36' E 016°13'0 0.0
2015-Feb-23 03:32N 58°36' E 016°13'0 0.0
2015-Feb-23 02:26N 58°36' E 016°13'0 0.0
2015-Feb-23 01:32N 58°36' E 016°13'0 0.0
2015-Feb-23 00:32N 58°36' E 016°13'0 0.0
2015-Feb-22 23:32N 58°36' E 016°13'0 0.0
2015-Feb-22 22:32N 58°36' E 016°13'0 0.0
2015-Feb-22 21:32N 58°36' E 016°13'0 0.0
2015-Feb-22 20:32N 58°36' E 016°13'0 0.0
2015-Feb-22 19:32N 58°36' E 016°13'0 0.0
2015-Feb-22 18:32N 58°36' E 016°13'0 0.0
2015-Feb-22 17:32N 58°36' E 016°13'0 0.0
2015-Feb-22 16:32N 58°36' E 016°13'0 0.0
2015-Feb-22 15:32N 58°36' E 016°13'0 0.0
2015-Feb-22 14:32N 58°36' E 016°13'0 0.0
2015-Feb-22 13:32N 58°36' E 016°13'0 0.0
2015-Feb-22 12:32N 58°36' E 016°13'0 0.0
2015-Feb-22 11:32N 58°36' E 016°13'0 0.0
2015-Feb-22 10:32N 58°36' E 016°13'0 0.0
2015-Feb-22 09:32N 58°36' E 016°13'0 0.0
2015-Feb-22 08:32N 58°36' E 016°13'0 0.0
2015-Feb-22 07:32N 58°36' E 016°13'0 0.0
2015-Feb-22 06:32N 58°36' E 016°13'0 0.0
2015-Feb-22 05:32N 58°36' E 016°13'0 0.0
2015-Feb-22 04:32N 58°36' E 016°13'0 0.0
2015-Feb-22 03:32N 58°36' E 016°13'0 0.0
2015-Feb-22 02:32N 58°36' E 016°13'0 0.0
2015-Feb-22 01:31N 58°36' E 016°13'0 0.0
2015-Feb-22 00:31N 58°36' E 016°13'0 0.0
2015-Feb-21 23:31N 58°36' E 016°13'0 0.0
2015-Feb-21 22:31N 58°36' E 016°13'2 2.1
2015-Feb-21 21:33N 58°37' E 016°16'9 9.1
2015-Feb-21 20:33N 58°39' E 016°33'1010.1
2015-Feb-21 19:33N 58°36' E 016°52'  
2015-Feb-16 12:29N 58°60' E 017°43'1010.9
2015-Feb-16 11:33N 58°50' E 017°44'  
Track history (hours):
 
Tides and Currents Weather Stations Pressure Air Temp Water Temp Dewpoint Dewpoint Depression Visibility Wind Speed Wind Dir Waves Ship Positions

Vingaren

Last reported at 2015-Feb-24 21:08 UTC. Time now 2015-Mar-03 04:43 UTC.
Position N 58°38' E 017°09'.

Length 89 m; draft 3.9 m.

Type: Cargo ship. MMSI: 231844000.

Date/timePositionNaut miles runAvg speedWind from/ knotsBaromVisibWave heightAir tempDewpointWater temp
2015-Feb-24 21:08N 58°38' E 017°09'611.0
2015-Feb-24 20:33N 58°36' E 016°57'1010.5
2015-Feb-24 19:33N 58°38' E 016°37'10 9.8
2015-Feb-24 18:34N 58°38' E 016°18'4 3.5
2015-Feb-24 17:33N 58°36' E 016°13'0 0.0
2015-Feb-24 16:33N 58°36' E 016°13'0 0.0
2015-Feb-24 15:33N 58°36' E 016°13'0 0.0
2015-Feb-24 14:33N 58°36' E 016°13'0 0.0
2015-Feb-24 13:33N 58°36' E 016°13'0 0.0
2015-Feb-24 12:33N 58°36' E 016°13'0 0.0
2015-Feb-24 11:33N 58°36' E 016°13'0 0.0
2015-Feb-24 10:33N 58°36' E 016°13'0 0.0
2015-Feb-24 09:33N 58°36' E 016°13'0 0.0
2015-Feb-24 08:33N 58°36' E 016°13'0 0.0
2015-Feb-24 07:33N 58°36' E 016°13'0 0.0
2015-Feb-24 06:33N 58°36' E 016°13'0 0.0
2015-Feb-24 05:33N 58°36' E 016°13'0 0.0
2015-Feb-24 04:33N 58°36' E 016°13'0 0.0
2015-Feb-24 03:27N 58°36' E 016°13'0 0.0
2015-Feb-24 02:33N 58°36' E 016°13'0 0.0
2015-Feb-24 01:33N 58°36' E 016°13'0 0.0
2015-Feb-24 00:33N 58°36' E 016°13'0 0.0
2015-Feb-23 23:33N 58°36' E 016°13'0 0.0
2015-Feb-23 22:33N 58°36' E 016°13'0 0.0
2015-Feb-23 21:33N 58°36' E 016°13'0 0.0
2015-Feb-23 09:32N 58°36' E 016°13'0 0.0
2015-Feb-23 08:32N 58°36' E 016°13'0 0.0
2015-Feb-23 07:32N 58°36' E 016°13'0 0.0
2015-Feb-23 06:32N 58°36' E 016°13'0 0.0
2015-Feb-23 05:32N 58°36' E 016°13'0 0.0
2015-Feb-23 04:32N 58°36' E 016°13'0 0.0
2015-Feb-23 03:32N 58°36' E 016°13'0 0.0
2015-Feb-23 02:26N 58°36' E 016°13'0 0.0
2015-Feb-23 01:32N 58°36' E 016°13'0 0.0
2015-Feb-23 00:32N 58°36' E 016°13'0 0.0
2015-Feb-22 23:32N 58°36' E 016°13'0 0.0
2015-Feb-22 22:32N 58°36' E 016°13'0 0.0
2015-Feb-22 21:32N 58°36' E 016°13'0 0.0
2015-Feb-22 20:32N 58°36' E 016°13'0 0.0
2015-Feb-22 19:32N 58°36' E 016°13'0 0.0
2015-Feb-22 18:32N 58°36' E 016°13'0 0.0
2015-Feb-22 17:32N 58°36' E 016°13'0 0.0
2015-Feb-22 16:32N 58°36' E 016°13'0 0.0
2015-Feb-22 15:32N 58°36' E 016°13'0 0.0
2015-Feb-22 14:32N 58°36' E 016°13'0 0.0
2015-Feb-22 13:32N 58°36' E 016°13'0 0.0
2015-Feb-22 12:32N 58°36' E 016°13'0 0.0
2015-Feb-22 11:32N 58°36' E 016°13'0 0.0
2015-Feb-22 10:32N 58°36' E 016°13'0 0.0
2015-Feb-22 09:32N 58°36' E 016°13'0 0.0
2015-Feb-22 08:32N 58°36' E 016°13'0 0.0
2015-Feb-22 07:32N 58°36' E 016°13'0 0.0
2015-Feb-22 06:32N 58°36' E 016°13'0 0.0
2015-Feb-22 05:32N 58°36' E 016°13'0 0.0
2015-Feb-22 04:32N 58°36' E 016°13'0 0.0
2015-Feb-22 03:32N 58°36' E 016°13'0 0.0
2015-Feb-22 02:32N 58°36' E 016°13'0 0.0
2015-Feb-22 01:31N 58°36' E 016°13'0 0.0
2015-Feb-22 00:31N 58°36' E 016°13'0 0.0
2015-Feb-21 23:31N 58°36' E 016°13'0 0.0
2015-Feb-21 22:31N 58°36' E 016°13'2 2.1
2015-Feb-21 21:33N 58°37' E 016°16'9 9.1
2015-Feb-21 20:33N 58°39' E 016°33'1010.1
2015-Feb-21 19:33N 58°36' E 016°52'  
2015-Feb-16 12:29N 58°60' E 017°43'1010.9
2015-Feb-16 11:33N 58°50' E 017°44'  

Dump ship's entire track history